Time,TemperatureF,DewpointF,PressureIn,WindDirection,WindDirectionDegrees,WindSpeedMPH,WindSpeedGustMPH,Humidity,HourlyPrecipIn,Conditions,Clouds,dailyrainin,SoftwareType,DateUTC
2013-12-07 00:02:00,-13.0,-16.0,-100.00,SE,134,4.0,6.0,84,0.00,,,0.00,,2013-12-07 07:02:00,
2013-12-07 00:22:00,-13.0,-16.0,-100.00,SE,141,6.0,10.0,83,0.00,,,0.00,,2013-12-07 07:22:00,
2013-12-07 00:32:00,-13.0,-16.0,-100.00,SE,141,6.0,10.0,83,0.00,,,0.00,,2013-12-07 07:32:00,
2013-12-07 00:53:00,-13.0,-17.0,-100.00,SSE,148,5.0,8.0,83,0.00,,,0.00,,2013-12-07 07:53:00,
2013-12-07 01:02:00,-13.0,-17.0,-100.00,SSE,148,5.0,8.0,83,0.00,,,0.00,,2013-12-07 08:02:00,
2013-12-07 01:22:00,-13.0,-17.0,-100.00,SSE,168,4.0,8.0,83,0.00,,,0.00,,2013-12-07 08:22:00,
2013-12-07 01:32:00,-13.0,-17.0,-100.00,SSE,168,4.0,8.0,83,0.00,,,0.00,,2013-12-07 08:32:00,
2013-12-07 01:52:00,-13.0,-17.0,-100.00,SE,145,7.0,10.0,83,0.00,,,0.00,,2013-12-07 08:52:00,
2013-12-07 02:02:00,-13.0,-17.0,-100.00,SE,145,7.0,10.0,83,0.00,,,0.00,,2013-12-07 09:02:00,
2013-12-07 02:22:00,-14.0,-17.0,-100.00,South,179,4.0,7.0,83,0.00,,,0.00,,2013-12-07 09:22:00,
2013-12-07 02:33:00,-14.0,-17.0,-100.00,South,179,4.0,7.0,83,0.00,,,0.00,,2013-12-07 09:33:00,
2013-12-07 02:53:00,-14.0,-18.0,-100.00,SSE,148,6.0,13.0,83,0.00,,,0.00,,2013-12-07 09:53:00,
2013-12-07 03:03:00,-14.0,-18.0,-100.00,SSE,148,6.0,13.0,83,0.00,,,0.00,,2013-12-07 10:03:00,
2013-12-07 03:23:00,-14.0,-17.0,-100.00,South,172,2.0,6.0,83,0.00,,,0.00,,2013-12-07 10:23:00,
2013-12-07 03:33:00,-14.0,-17.0,-100.00,South,172,2.0,6.0,83,0.00,,,0.00,,2013-12-07 10:33:00,
2013-12-07 03:53:00,-14.0,-17.0,-100.00,SE,143,6.0,11.0,83,0.00,,,0.00,,2013-12-07 10:53:00,
2013-12-07 04:02:00,-14.0,-17.0,-100.00,SE,143,6.0,11.0,83,0.00,,,0.00,,2013-12-07 11:02:00,
2013-12-07 04:22:00,-14.0,-18.0,-100.00,SSE,152,4.0,9.0,83,0.00,,,0.00,,2013-12-07 11:22:00,
2013-12-07 04:32:00,-14.0,-18.0,-100.00,SSE,152,4.0,9.0,83,0.00,,,0.00,,2013-12-07 11:32:00,
2013-12-07 04:52:00,-14.0,-18.0,-100.00,SE,140,2.0,4.0,83,0.00,,,0.00,,2013-12-07 11:52:00,
2013-12-07 05:02:00,-14.0,-18.0,-100.00,SE,140,2.0,4.0,83,0.00,,,0.00,,2013-12-07 12:02:00,
2013-12-07 05:22:00,-14.0,-18.0,-100.00,SSE,150,3.0,5.0,83,0.00,,,0.00,,2013-12-07 12:22:00,
2013-12-07 05:32:00,-14.0,-18.0,-100.00,SSE,150,3.0,5.0,83,0.00,,,0.00,,2013-12-07 12:32:00,
2013-12-07 05:52:00,-14.0,-17.0,-100.00,SSE,165,3.0,5.0,83,0.00,,,0.00,,2013-12-07 12:52:00,
2013-12-07 06:02:00,-14.0,-17.0,-100.00,SSE,165,3.0,5.0,83,0.00,,,0.00,,2013-12-07 13:02:00,
2013-12-07 06:22:00,-13.0,-17.0,-100.00,SSW,209,2.0,4.0,83,0.00,,,0.00,,2013-12-07 13:22:00,
2013-12-07 06:32:00,-13.0,-17.0,-100.00,SSW,209,2.0,4.0,83,0.00,,,0.00,,2013-12-07 13:32:00,
2013-12-07 06:52:00,-13.0,-17.0,-100.00,WSW,247,1.0,2.0,83,0.00,,,0.00,,2013-12-07 13:52:00,
2013-12-07 07:02:00,-13.0,-17.0,-100.00,WSW,247,1.0,2.0,83,0.00,,,0.00,,2013-12-07 14:02:00,
2013-12-07 07:21:00,-13.0,-17.0,-100.00,WSW,246,1.0,2.0,83,0.00,,,0.00,,2013-12-07 14:21:00,
2013-12-07 07:32:00,-13.0,-17.0,-100.00,WSW,246,1.0,2.0,83,0.00,,,0.00,,2013-12-07 14:32:00,
2013-12-07 07:52:00,-13.0,-17.0,-100.00,WSW,256,1.0,2.0,83,0.00,,,0.00,,2013-12-07 14:52:00,
2013-12-07 08:02:00,-13.0,-17.0,-100.00,WSW,256,1.0,2.0,83,0.00,,,0.00,,2013-12-07 15:02:00,
2013-12-07 08:21:00,-14.0,-18.0,-100.00,SW,223,2.0,3.0,83,0.00,,,0.00,,2013-12-07 15:21:00,
2013-12-07 08:33:00,-14.0,-18.0,-100.00,SW,223,2.0,3.0,83,0.00,,,0.00,,2013-12-07 15:33:00,
2013-12-07 08:54:00,-14.0,-18.0,-100.00,SW,229,1.0,2.0,82,0.00,,,0.00,,2013-12-07 15:54:00,
2013-12-07 09:03:00,-14.0,-18.0,-100.00,SW,229,1.0,2.0,82,0.00,,,0.00,,2013-12-07 16:03:00,
2013-12-07 09:23:00,-14.0,-18.0,-100.00,North,3,2.0,4.0,82,0.00,,,0.00,,2013-12-07 16:23:00,
2013-12-07 09:33:00,-14.0,-18.0,-100.00,North,3,2.0,4.0,82,0.00,,,0.00,,2013-12-07 16:33:00,
2013-12-07 09:53:00,-12.0,-16.0,-100.00,NW,308,1.0,4.0,84,0.00,,,0.00,,2013-12-07 16:53:00,
2013-12-07 10:02:00,-12.0,-16.0,-100.00,NW,308,1.0,4.0,84,0.00,,,0.00,,2013-12-07 17:02:00,
2013-12-07 10:22:00,-5.0,-7.0,-100.00,South,171,1.0,2.0,88,0.00,,,0.00,,2013-12-07 17:22:00,
2013-12-07 10:33:00,-5.0,-7.0,-100.00,South,171,1.0,2.0,88,0.00,,,0.00,,2013-12-07 17:33:00,
2013-12-07 12:11:00,-1.0,-5.0,-100.00,NW,322,7.0,8.0,83,0.00,,,0.00,,2013-12-07 19:11:00,
2013-12-07 12:22:00,-1.0,-5.0,-100.00,NW,322,7.0,8.0,83,0.00,,,0.00,,2013-12-07 19:22:00,
2013-12-07 12:42:00,-8.0,-11.0,-100.00,NNW,329,8.0,9.0,84,0.00,,,0.00,,2013-12-07 19:42:00,
2013-12-07 13:11:00,-8.0,-11.0,-100.00,NW,326,8.0,10.0,85,0.00,,,0.00,,2013-12-07 20:11:00,
2013-12-07 13:42:00,-8.0,-11.0,-100.00,NW,325,9.0,10.0,85,0.00,,,0.00,,2013-12-07 20:42:00,
2013-12-07 14:11:00,-8.0,-11.0,-100.00,NW,322,10.0,12.0,85,0.00,,,0.00,,2013-12-07 21:11:00,
2013-12-07 14:22:00,-8.0,-11.0,-100.00,NW,322,10.0,12.0,85,0.00,,,0.00,,2013-12-07 21:22:00,
2013-12-07 14:43:00,-8.0,-11.0,-100.00,NW,326,10.0,11.0,85,0.00,,,0.00,,2013-12-07 21:43:00,
2013-12-07 15:13:00,-8.0,-11.0,-100.00,NW,316,9.0,11.0,86,0.00,,,0.00,,2013-12-07 22:13:00,
2013-12-07 15:23:00,-8.0,-11.0,-100.00,NW,316,9.0,11.0,86,0.00,,,0.00,,2013-12-07 22:23:00,
2013-12-07 15:42:00,-6.0,-9.0,-100.00,NW,306,6.0,9.0,86,0.00,,,0.00,,2013-12-07 22:42:00,
2013-12-07 16:12:00,-6.0,-10.0,-100.00,NW,313,7.0,9.0,86,0.00,,,0.00,,2013-12-07 23:12:00,
2013-12-07 16:21:00,-6.0,-10.0,-100.00,NW,313,7.0,9.0,86,0.00,,,0.00,,2013-12-07 23:21:00,
2013-12-07 16:42:00,-8.0,-11.0,-100.00,NW,309,6.0,8.0,85,0.00,,,0.00,,2013-12-07 23:42:00,
2013-12-07 17:52:00,-11.0,-15.0,-100.00,NW,316,7.0,8.0,84,0.00,,,0.00,,2013-12-08 00:52:00,
2013-12-07 18:02:00,-11.0,-15.0,-100.00,NW,316,7.0,8.0,84,0.00,,,0.00,,2013-12-08 01:02:00,
2013-12-07 18:22:00,-13.0,-16.0,-100.00,NW,309,6.0,8.0,83,0.00,,,0.00,,2013-12-08 01:22:00,
2013-12-07 18:32:00,-13.0,-16.0,-100.00,NW,309,6.0,8.0,83,0.00,,,0.00,,2013-12-08 01:32:00,
2013-12-07 18:52:00,-13.0,-17.0,-100.00,NW,309,6.0,8.0,83,0.00,,,0.00,,2013-12-08 01:52:00,
2013-12-07 19:02:00,-13.0,-17.0,-100.00,NW,309,6.0,8.0,83,0.00,,,0.00,,2013-12-08 02:02:00,
2013-12-07 19:21:00,-14.0,-18.0,-100.00,WNW,298,4.0,6.0,83,0.00,,,0.00,,2013-12-08 02:21:00,
2013-12-07 19:32:00,-14.0,-18.0,-100.00,WNW,298,4.0,6.0,83,0.00,,,0.00,,2013-12-08 02:32:00,
2013-12-07 19:52:00,-14.0,-18.0,-100.00,NW,311,4.0,4.0,82,0.00,,,0.00,,2013-12-08 02:52:00,
2013-12-07 20:02:00,-14.0,-18.0,-100.00,NW,311,4.0,4.0,82,0.00,,,0.00,,2013-12-08 03:02:00,
2013-12-07 20:22:00,-15.0,-19.0,-100.00,WNW,294,3.0,4.0,82,0.00,,,0.00,,2013-12-08 03:22:00,
2013-12-07 20:33:00,-15.0,-19.0,-100.00,WNW,294,3.0,4.0,82,0.00,,,0.00,,2013-12-08 03:33:00,
2013-12-07 20:54:00,-16.0,-20.0,-100.00,NW,316,4.0,6.0,81,0.00,,,0.00,,2013-12-08 03:54:00,
2013-12-07 21:02:00,-999.0,-99.9,-100.00,NW,316,4.0,6.0,-999,0.00,,,0.00,,2013-12-08 04:02:00,
2013-12-07 21:23:00,-16.0,-20.0,-100.00,WNW,288,2.0,3.0,82,0.00,,,0.00,,2013-12-08 04:23:00,
2013-12-07 21:33:00,-16.0,-20.0,-100.00,WNW,288,2.0,3.0,82,0.00,,,0.00,,2013-12-08 04:33:00,
2013-12-07 21:53:00,-16.0,-20.0,-100.00,WNW,287,2.0,4.0,81,0.00,,,0.00,,2013-12-08 04:53:00,
2013-12-07 22:02:00,-16.0,-20.0,-100.00,WNW,287,2.0,4.0,81,0.00,,,0.00,,2013-12-08 05:02:00,
2013-12-07 22:22:00,-17.0,-21.0,-100.00,NW,325,4.0,5.0,81,0.00,,,0.00,,2013-12-08 05:22:00,
2013-12-07 22:33:00,-17.0,-21.0,-100.00,NW,325,4.0,5.0,81,0.00,,,0.00,,2013-12-08 05:33:00,
2013-12-07 22:53:00,-17.0,-21.0,-100.00,WNW,289,2.0,2.0,82,0.00,,,0.00,,2013-12-08 05:53:00,
2013-12-07 23:02:00,-17.0,-21.0,-100.00,WNW,289,2.0,2.0,82,0.00,,,0.00,,2013-12-08 06:02:00,
2013-12-07 23:23:00,-17.0,-21.0,-100.00,NW,325,2.0,2.0,81,0.00,,,0.00,,2013-12-08 06:23:00,
2013-12-07 23:32:00,-17.0,-21.0,-100.00,NW,325,2.0,2.0,81,0.00,,,0.00,,2013-12-08 06:32:00,
2013-12-07 23:52:00,-17.0,-21.0,-100.00,ESE,117,0.0,1.0,81,0.00,,,0.00,,2013-12-08 06:52:00,